sensor_id;sensor_type;location;lat;lon;timestamp;temperature;humidity
13203;DHT22;6666;51.626;7.530;2023-12-28T00:01:10;8.80;99.90
13203;DHT22;6666;51.626;7.530;2023-12-28T00:03:39;8.70;99.90
13203;DHT22;6666;51.626;7.530;2023-12-28T00:06:08;8.60;99.90
13203;DHT22;6666;51.626;7.530;2023-12-28T00:08:37;8.60;99.90
13203;DHT22;6666;51.626;7.530;2023-12-28T00:11:05;8.50;99.90
13203;DHT22;6666;51.626;7.530;2023-12-28T00:13:33;8.50;99.90
13203;DHT22;6666;51.626;7.530;2023-12-28T00:16:01;8.40;99.90
13203;DHT22;6666;51.626;7.530;2023-12-28T00:18:30;8.40;99.90
13203;DHT22;6666;51.626;7.530;2023-12-28T00:21:00;8.40;99.90
13203;DHT22;6666;51.626;7.530;2023-12-28T00:23:28;8.40;99.90
13203;DHT22;6666;51.626;7.530;2023-12-28T00:25:56;8.40;99.90
13203;DHT22;6666;51.626;7.530;2023-12-28T00:28:24;8.40;99.90
13203;DHT22;6666;51.626;7.530;2023-12-28T00:30:52;8.40;99.90
13203;DHT22;6666;51.626;7.530;2023-12-28T00:33:20;8.40;99.90
13203;DHT22;6666;51.626;7.530;2023-12-28T00:35:48;8.40;99.90
13203;DHT22;6666;51.626;7.530;2023-12-28T00:38:18;8.30;99.90
13203;DHT22;6666;51.626;7.530;2023-12-28T00:40:46;8.40;99.90
13203;DHT22;6666;51.626;7.530;2023-12-28T00:43:15;8.40;99.90
13203;DHT22;6666;51.626;7.530;2023-12-28T00:45:43;8.40;99.90
13203;DHT22;6666;51.626;7.530;2023-12-28T00:48:11;8.40;99.90
13203;DHT22;6666;51.626;7.530;2023-12-28T00:50:40;8.40;99.90
13203;DHT22;6666;51.626;7.530;2023-12-28T00:53:08;8.40;99.90
13203;DHT22;6666;51.626;7.530;2023-12-28T00:55:37;8.40;99.90
13203;DHT22;6666;51.626;7.530;2023-12-28T00:58:05;8.40;99.90
13203;DHT22;6666;51.626;7.530;2023-12-28T01:00:33;8.40;99.90
13203;DHT22;6666;51.626;7.530;2023-12-28T01:03:01;8.30;99.90
13203;DHT22;6666;51.626;7.530;2023-12-28T01:05:30;8.30;99.90
13203;DHT22;6666;51.626;7.530;2023-12-28T01:07:58;8.30;99.90
13203;DHT22;6666;51.626;7.530;2023-12-28T01:10:26;8.30;99.90
13203;DHT22;6666;51.626;7.530;2023-12-28T01:12:56;8.30;99.90
13203;DHT22;6666;51.626;7.530;2023-12-28T01:15:24;8.30;99.90
13203;DHT22;6666;51.626;7.530;2023-12-28T01:17:53;8.30;99.90
13203;DHT22;6666;51.626;7.530;2023-12-28T01:20:21;8.30;99.90
13203;DHT22;6666;51.626;7.530;2023-12-28T01:22:49;8.30;99.90
13203;DHT22;6666;51.626;7.530;2023-12-28T01:25:17;8.30;99.90
13203;DHT22;6666;51.626;7.530;2023-12-28T01:27:45;8.30;99.90
13203;DHT22;6666;51.626;7.530;2023-12-28T01:30:15;8.30;99.90
13203;DHT22;6666;51.626;7.530;2023-12-28T01:32:43;8.40;99.90
13203;DHT22;6666;51.626;7.530;2023-12-28T01:35:11;8.40;99.90
13203;DHT22;6666;51.626;7.530;2023-12-28T01:37:40;8.40;99.90
13203;DHT22;6666;51.626;7.530;2023-12-28T01:40:08;8.40;99.90
13203;DHT22;6666;51.626;7.530;2023-12-28T01:42:37;8.40;99.90
13203;DHT22;6666;51.626;7.530;2023-12-28T01:45:06;8.40;99.90
13203;DHT22;6666;51.626;7.530;2023-12-28T01:47:36;8.40;99.90
13203;DHT22;6666;51.626;7.530;2023-12-28T01:50:06;8.40;99.90
13203;DHT22;6666;51.626;7.530;2023-12-28T01:52:34;8.40;99.90
13203;DHT22;6666;51.626;7.530;2023-12-28T01:55:04;8.40;99.90
13203;DHT22;6666;51.626;7.530;2023-12-28T01:57:32;8.50;99.90
13203;DHT22;6666;51.626;7.530;2023-12-28T02:00:00;8.50;99.90
13203;DHT22;6666;51.626;7.530;2023-12-28T02:02:39;8.60;99.90
13203;DHT22;6666;51.626;7.530;2023-12-28T02:05:09;8.60;99.90
13203;DHT22;6666;51.626;7.530;2023-12-28T02:07:40;8.70;99.90
13203;DHT22;6666;51.626;7.530;2023-12-28T02:10:09;8.70;99.90
13203;DHT22;6666;51.626;7.530;2023-12-28T02:12:37;8.70;99.90
13203;DHT22;6666;51.626;7.530;2023-12-28T02:15:05;8.80;99.90
13203;DHT22;6666;51.626;7.530;2023-12-28T02:17:38;8.90;99.90
13203;DHT22;6666;51.626;7.530;2023-12-28T02:20:11;8.90;99.90
13203;DHT22;6666;51.626;7.530;2023-12-28T02:22:39;9.00;99.90
13203;DHT22;6666;51.626;7.530;2023-12-28T02:25:10;9.00;99.90
13203;DHT22;6666;51.626;7.530;2023-12-28T02:27:41;9.00;99.90
13203;DHT22;6666;51.626;7.530;2023-12-28T02:30:10;9.10;99.90
13203;DHT22;6666;51.626;7.530;2023-12-28T02:32:44;9.20;99.90
13203;DHT22;6666;51.626;7.530;2023-12-28T02:35:19;9.20;99.90
13203;DHT22;6666;51.626;7.530;2023-12-28T02:37:51;9.20;99.90
13203;DHT22;6666;51.626;7.530;2023-12-28T02:40:23;9.10;99.90
13203;DHT22;6666;51.626;7.530;2023-12-28T02:42:52;9.10;99.90
13203;DHT22;6666;51.626;7.530;2023-12-28T02:45:21;9.20;99.90
13203;DHT22;6666;51.626;7.530;2023-12-28T02:47:49;9.30;99.90
13203;DHT22;6666;51.626;7.530;2023-12-28T02:50:17;9.30;99.90
13203;DHT22;6666;51.626;7.530;2023-12-28T02:52:45;9.20;99.90
13203;DHT22;6666;51.626;7.530;2023-12-28T02:55:14;9.30;99.90
13203;DHT22;6666;51.626;7.530;2023-12-28T02:57:44;9.30;99.90
13203;DHT22;6666;51.626;7.530;2023-12-28T03:00:13;9.30;99.90
13203;DHT22;6666;51.626;7.530;2023-12-28T03:02:41;9.40;99.90
13203;DHT22;6666;51.626;7.530;2023-12-28T03:05:10;9.40;99.90
13203;DHT22;6666;51.626;7.530;2023-12-28T03:07:38;9.50;99.90
13203;DHT22;6666;51.626;7.530;2023-12-28T03:10:08;9.50;99.90
13203;DHT22;6666;51.626;7.530;2023-12-28T03:12:39;9.50;99.90
13203;DHT22;6666;51.626;7.530;2023-12-28T03:15:09;9.50;99.90
13203;DHT22;6666;51.626;7.530;2023-12-28T03:17:37;9.50;99.90
13203;DHT22;6666;51.626;7.530;2023-12-28T03:20:06;9.50;99.90
13203;DHT22;6666;51.626;7.530;2023-12-28T03:22:34;9.40;99.90
13203;DHT22;6666;51.626;7.530;2023-12-28T03:25:02;9.40;99.90
13203;DHT22;6666;51.626;7.530;2023-12-28T03:27:31;9.40;99.90
13203;DHT22;6666;51.626;7.530;2023-12-28T03:29:59;9.40;99.90
13203;DHT22;6666;51.626;7.530;2023-12-28T03:32:28;9.40;99.90
13203;DHT22;6666;51.626;7.530;2023-12-28T03:34:56;9.40;99.90
13203;DHT22;6666;51.626;7.530;2023-12-28T03:37:24;9.40;99.90
13203;DHT22;6666;51.626;7.530;2023-12-28T03:39:52;9.40;99.90
13203;DHT22;6666;51.626;7.530;2023-12-28T03:42:20;9.40;99.90
13203;DHT22;6666;51.626;7.530;2023-12-28T03:44:49;9.40;99.90
13203;DHT22;6666;51.626;7.530;2023-12-28T03:47:17;9.40;99.90
13203;DHT22;6666;51.626;7.530;2023-12-28T03:49:47;9.40;99.90
13203;DHT22;6666;51.626;7.530;2023-12-28T03:52:15;9.50;99.90
13203;DHT22;6666;51.626;7.530;2023-12-28T03:54:43;9.40;99.90
13203;DHT22;6666;51.626;7.530;2023-12-28T03:57:12;9.40;99.90
13203;DHT22;6666;51.626;7.530;2023-12-28T03:59:40;9.30;99.90
13203;DHT22;6666;51.626;7.530;2023-12-28T04:02:08;9.30;99.90
13203;DHT22;6666;51.626;7.530;2023-12-28T04:04:36;9.30;99.90
13203;DHT22;6666;51.626;7.530;2023-12-28T04:07:06;9.30;99.90
13203;DHT22;6666;51.626;7.530;2023-12-28T04:09:35;9.40;99.90
13203;DHT22;6666;51.626;7.530;2023-12-28T04:12:03;9.40;99.90
13203;DHT22;6666;51.626;7.530;2023-12-28T04:14:31;9.30;99.90
13203;DHT22;6666;51.626;7.530;2023-12-28T04:16:59;9.40;99.90
13203;DHT22;6666;51.626;7.530;2023-12-28T04:19:27;9.40;99.90
13203;DHT22;6666;51.626;7.530;2023-12-28T04:21:56;9.40;99.90
13203;DHT22;6666;51.626;7.530;2023-12-28T04:24:25;9.40;99.90
13203;DHT22;6666;51.626;7.530;2023-12-28T04:26:54;9.40;99.90
13203;DHT22;6666;51.626;7.530;2023-12-28T04:29:22;9.50;99.90
13203;DHT22;6666;51.626;7.530;2023-12-28T04:31:51;9.50;99.90
13203;DHT22;6666;51.626;7.530;2023-12-28T04:34:20;9.50;99.90
13203;DHT22;6666;51.626;7.530;2023-12-28T04:36:48;9.40;99.90
13203;DHT22;6666;51.626;7.530;2023-12-28T04:39:16;9.40;99.90
13203;DHT22;6666;51.626;7.530;2023-12-28T04:41:46;9.60;99.90
13203;DHT22;6666;51.626;7.530;2023-12-28T04:44:14;9.60;99.90
13203;DHT22;6666;51.626;7.530;2023-12-28T04:46:42;9.60;99.90
13203;DHT22;6666;51.626;7.530;2023-12-28T04:49:12;9.60;99.90
13203;DHT22;6666;51.626;7.530;2023-12-28T04:51:42;9.60;99.90
13203;DHT22;6666;51.626;7.530;2023-12-28T04:54:11;9.70;99.90
13203;DHT22;6666;51.626;7.530;2023-12-28T04:56:39;9.70;99.90
13203;DHT22;6666;51.626;7.530;2023-12-28T05:01:42;9.80;99.90
13203;DHT22;6666;51.626;7.530;2023-12-28T05:04:10;9.80;99.90
13203;DHT22;6666;51.626;7.530;2023-12-28T05:06:44;9.80;99.90
13203;DHT22;6666;51.626;7.530;2023-12-28T05:09:13;9.80;99.90
13203;DHT22;6666;51.626;7.530;2023-12-28T05:11:41;9.80;99.90
13203;DHT22;6666;51.626;7.530;2023-12-28T05:14:09;9.80;99.90
13203;DHT22;6666;51.626;7.530;2023-12-28T05:16:37;9.70;99.90
13203;DHT22;6666;51.626;7.530;2023-12-28T05:19:07;9.70;99.90
13203;DHT22;6666;51.626;7.530;2023-12-28T05:21:36;9.80;99.90
13203;DHT22;6666;51.626;7.530;2023-12-28T05:24:05;9.80;99.90
13203;DHT22;6666;51.626;7.530;2023-12-28T05:26:33;9.80;99.90
13203;DHT22;6666;51.626;7.530;2023-12-28T05:29:02;9.70;99.90
13203;DHT22;6666;51.626;7.530;2023-12-28T05:31:30;9.70;99.90
13203;DHT22;6666;51.626;7.530;2023-12-28T05:33:59;9.80;99.90
13203;DHT22;6666;51.626;7.530;2023-12-28T05:36:28;9.80;99.90
13203;DHT22;6666;51.626;7.530;2023-12-28T05:38:57;9.70;99.90
13203;DHT22;6666;51.626;7.530;2023-12-28T05:41:25;9.70;99.90
13203;DHT22;6666;51.626;7.530;2023-12-28T05:43:53;9.70;99.90
13203;DHT22;6666;51.626;7.530;2023-12-28T05:46:21;9.70;99.90
13203;DHT22;6666;51.626;7.530;2023-12-28T05:48:49;9.70;99.90
13203;DHT22;6666;51.626;7.530;2023-12-28T05:51:17;9.80;99.90
13203;DHT22;6666;51.626;7.530;2023-12-28T05:53:47;9.80;99.90
13203;DHT22;6666;51.626;7.530;2023-12-28T05:56:15;9.80;99.90
13203;DHT22;6666;51.626;7.530;2023-12-28T05:58:43;9.90;99.90
13203;DHT22;6666;51.626;7.530;2023-12-28T06:01:12;10.00;99.90
13203;DHT22;6666;51.626;7.530;2023-12-28T06:03:40;9.90;99.90
13203;DHT22;6666;51.626;7.530;2023-12-28T06:06:08;9.90;99.90
13203;DHT22;6666;51.626;7.530;2023-12-28T06:08:36;9.90;99.90
13203;DHT22;6666;51.626;7.530;2023-12-28T06:11:06;9.90;99.90
13203;DHT22;6666;51.626;7.530;2023-12-28T06:13:34;9.90;99.90
13203;DHT22;6666;51.626;7.530;2023-12-28T06:16:02;10.00;99.90
13203;DHT22;6666;51.626;7.530;2023-12-28T06:18:31;10.00;99.90
13203;DHT22;6666;51.626;7.530;2023-12-28T06:20:59;10.00;99.90
13203;DHT22;6666;51.626;7.530;2023-12-28T06:23:27;10.00;99.90
13203;DHT22;6666;51.626;7.530;2023-12-28T06:25:55;9.90;99.90
13203;DHT22;6666;51.626;7.530;2023-12-28T06:28:25;10.00;99.90
13203;DHT22;6666;51.626;7.530;2023-12-28T06:30:53;10.00;99.90
13203;DHT22;6666;51.626;7.530;2023-12-28T06:33:21;9.90;99.90
13203;DHT22;6666;51.626;7.530;2023-12-28T06:35:49;9.90;99.90
13203;DHT22;6666;51.626;7.530;2023-12-28T06:38:17;9.90;99.90
13203;DHT22;6666;51.626;7.530;2023-12-28T06:40:45;9.90;99.90
13203;DHT22;6666;51.626;7.530;2023-12-28T06:43:13;9.80;99.90
13203;DHT22;6666;51.626;7.530;2023-12-28T06:45:43;9.90;99.90
13203;DHT22;6666;51.626;7.530;2023-12-28T06:48:12;9.90;99.90
13203;DHT22;6666;51.626;7.530;2023-12-28T06:50:41;9.80;99.90
13203;DHT22;6666;51.626;7.530;2023-12-28T06:53:09;9.80;99.90
13203;DHT22;6666;51.626;7.530;2023-12-28T06:55:37;9.90;99.90
13203;DHT22;6666;51.626;7.530;2023-12-28T06:58:05;9.90;99.90
13203;DHT22;6666;51.626;7.530;2023-12-28T07:00:34;9.90;99.90
13203;DHT22;6666;51.626;7.530;2023-12-28T07:03:04;9.80;99.90
13203;DHT22;6666;51.626;7.530;2023-12-28T07:05:32;9.80;99.90
13203;DHT22;6666;51.626;7.530;2023-12-28T07:08:00;9.70;99.90
13203;DHT22;6666;51.626;7.530;2023-12-28T07:10:28;9.70;99.90
13203;DHT22;6666;51.626;7.530;2023-12-28T07:12:56;9.60;99.90
13203;DHT22;6666;51.626;7.530;2023-12-28T07:15:24;9.60;99.90
13203;DHT22;6666;51.626;7.530;2023-12-28T07:17:53;9.60;99.90
13203;DHT22;6666;51.626;7.530;2023-12-28T07:20:22;9.60;99.90
13203;DHT22;6666;51.626;7.530;2023-12-28T07:22:50;9.70;99.90
13203;DHT22;6666;51.626;7.530;2023-12-28T07:25:20;9.70;99.90
13203;DHT22;6666;51.626;7.530;2023-12-28T07:27:49;9.70;99.90
13203;DHT22;6666;51.626;7.530;2023-12-28T07:30:17;9.70;99.90
13203;DHT22;6666;51.626;7.530;2023-12-28T07:32:45;9.70;99.90
13203;DHT22;6666;51.626;7.530;2023-12-28T07:35:13;9.80;99.90
13203;DHT22;6666;51.626;7.530;2023-12-28T07:37:43;9.70;99.90
13203;DHT22;6666;51.626;7.530;2023-12-28T07:40:12;9.80;99.90
13203;DHT22;6666;51.626;7.530;2023-12-28T07:42:40;9.70;99.90
13203;DHT22;6666;51.626;7.530;2023-12-28T07:45:08;9.70;99.90
13203;DHT22;6666;51.626;7.530;2023-12-28T07:47:37;9.70;99.90
13203;DHT22;6666;51.626;7.530;2023-12-28T07:50:06;9.70;99.90
13203;DHT22;6666;51.626;7.530;2023-12-28T07:52:34;9.70;99.90
13203;DHT22;6666;51.626;7.530;2023-12-28T07:55:04;9.80;99.90
13203;DHT22;6666;51.626;7.530;2023-12-28T07:57:33;9.80;99.90
13203;DHT22;6666;51.626;7.530;2023-12-28T08:00:02;9.80;99.90
13203;DHT22;6666;51.626;7.530;2023-12-28T08:02:30;9.80;99.90
13203;DHT22;6666;51.626;7.530;2023-12-28T08:04:59;9.80;99.90
13203;DHT22;6666;51.626;7.530;2023-12-28T08:07:27;9.80;99.90
13203;DHT22;6666;51.626;7.530;2023-12-28T08:09:55;9.80;99.90
13203;DHT22;6666;51.626;7.530;2023-12-28T08:12:24;9.80;99.90
13203;DHT22;6666;51.626;7.530;2023-12-28T08:14:54;9.80;99.90
13203;DHT22;6666;51.626;7.530;2023-12-28T08:17:23;9.80;99.90
13203;DHT22;6666;51.626;7.530;2023-12-28T08:19:51;9.90;99.90
13203;DHT22;6666;51.626;7.530;2023-12-28T08:22:19;9.90;99.90
13203;DHT22;6666;51.626;7.530;2023-12-28T08:24:47;9.90;99.90
13203;DHT22;6666;51.626;7.530;2023-12-28T08:27:15;9.90;99.90
13203;DHT22;6666;51.626;7.530;2023-12-28T08:29:45;9.90;99.90
13203;DHT22;6666;51.626;7.530;2023-12-28T08:32:13;10.00;99.90
13203;DHT22;6666;51.626;7.530;2023-12-28T08:34:41;10.00;99.90
13203;DHT22;6666;51.626;7.530;2023-12-28T08:37:09;10.10;99.90
13203;DHT22;6666;51.626;7.530;2023-12-28T08:39:39;10.10;99.90
13203;DHT22;6666;51.626;7.530;2023-12-28T08:42:07;10.10;99.90
13203;DHT22;6666;51.626;7.530;2023-12-28T08:44:35;10.20;99.90
13203;DHT22;6666;51.626;7.530;2023-12-28T08:47:05;10.20;99.90
13203;DHT22;6666;51.626;7.530;2023-12-28T08:49:33;10.30;99.90
13203;DHT22;6666;51.626;7.530;2023-12-28T08:52:01;10.30;99.90
13203;DHT22;6666;51.626;7.530;2023-12-28T08:54:30;10.30;99.90
13203;DHT22;6666;51.626;7.530;2023-12-28T08:56:58;10.30;99.90
13203;DHT22;6666;51.626;7.530;2023-12-28T08:59:26;10.40;99.90
13203;DHT22;6666;51.626;7.530;2023-12-28T09:01:54;10.40;99.90
13203;DHT22;6666;51.626;7.530;2023-12-28T09:04:24;10.50;99.90
13203;DHT22;6666;51.626;7.530;2023-12-28T09:06:52;10.40;99.90
13203;DHT22;6666;51.626;7.530;2023-12-28T09:09:20;10.50;99.90
13203;DHT22;6666;51.626;7.530;2023-12-28T09:11:48;10.50;99.90
13203;DHT22;6666;51.626;7.530;2023-12-28T09:14:17;10.50;99.90
13203;DHT22;6666;51.626;7.530;2023-12-28T09:16:46;10.50;99.90
13203;DHT22;6666;51.626;7.530;2023-12-28T09:19:14;10.50;99.90
13203;DHT22;6666;51.626;7.530;2023-12-28T09:21:44;10.50;99.90
13203;DHT22;6666;51.626;7.530;2023-12-28T09:24:12;10.50;99.90
13203;DHT22;6666;51.626;7.530;2023-12-28T09:26:41;10.50;99.90
13203;DHT22;6666;51.626;7.530;2023-12-28T09:29:09;10.50;99.90
13203;DHT22;6666;51.626;7.530;2023-12-28T09:31:39;10.50;99.90
13203;DHT22;6666;51.626;7.530;2023-12-28T09:34:07;10.50;99.90
13203;DHT22;6666;51.626;7.530;2023-12-28T09:36:35;10.50;99.90
13203;DHT22;6666;51.626;7.530;2023-12-28T09:39:05;10.50;99.90
13203;DHT22;6666;51.626;7.530;2023-12-28T09:41:37;10.50;99.90
13203;DHT22;6666;51.626;7.530;2023-12-28T09:44:10;10.50;99.90
13203;DHT22;6666;51.626;7.530;2023-12-28T09:46:41;10.60;99.90
13203;DHT22;6666;51.626;7.530;2023-12-28T09:49:10;10.60;99.90
13203;DHT22;6666;51.626;7.530;2023-12-28T09:51:38;10.60;99.90
13203;DHT22;6666;51.626;7.530;2023-12-28T09:54:08;10.70;99.90
13203;DHT22;6666;51.626;7.530;2023-12-28T09:56:36;10.70;99.90
13203;DHT22;6666;51.626;7.530;2023-12-28T09:59:05;10.70;99.90
13203;DHT22;6666;51.626;7.530;2023-12-28T10:01:34;10.80;99.90
13203;DHT22;6666;51.626;7.530;2023-12-28T10:04:03;10.80;99.90
13203;DHT22;6666;51.626;7.530;2023-12-28T10:06:31;10.90;99.90
13203;DHT22;6666;51.626;7.530;2023-12-28T10:08:59;10.90;99.90
13203;DHT22;6666;51.626;7.530;2023-12-28T10:11:29;10.90;99.90
13203;DHT22;6666;51.626;7.530;2023-12-28T10:13:59;10.90;99.90
13203;DHT22;6666;51.626;7.530;2023-12-28T10:16:27;10.90;99.90
13203;DHT22;6666;51.626;7.530;2023-12-28T10:18:56;10.90;99.90
13203;DHT22;6666;51.626;7.530;2023-12-28T10:21:24;10.90;99.90
13203;DHT22;6666;51.626;7.530;2023-12-28T10:23:52;10.90;99.90
13203;DHT22;6666;51.626;7.530;2023-12-28T10:26:21;10.90;99.90
13203;DHT22;6666;51.626;7.530;2023-12-28T10:28:57;10.90;99.90
13203;DHT22;6666;51.626;7.530;2023-12-28T10:31:27;10.90;99.90
13203;DHT22;6666;51.626;7.530;2023-12-28T10:33:58;10.90;99.90
13203;DHT22;6666;51.626;7.530;2023-12-28T10:36:30;10.80;99.90
13203;DHT22;6666;51.626;7.530;2023-12-28T10:39:00;10.90;99.90
13203;DHT22;6666;51.626;7.530;2023-12-28T10:41:34;10.80;99.90
13203;DHT22;6666;51.626;7.530;2023-12-28T10:44:05;10.80;99.90
13203;DHT22;6666;51.626;7.530;2023-12-28T10:46:40;10.80;99.90
13203;DHT22;6666;51.626;7.530;2023-12-28T10:49:10;10.80;99.90
13203;DHT22;6666;51.626;7.530;2023-12-28T10:51:41;10.80;99.90
13203;DHT22;6666;51.626;7.530;2023-12-28T10:54:22;10.80;99.90
13203;DHT22;6666;51.626;7.530;2023-12-28T10:56:59;10.80;99.90
13203;DHT22;6666;51.626;7.530;2023-12-28T10:59:35;10.80;99.90
13203;DHT22;6666;51.626;7.530;2023-12-28T11:02:09;10.80;99.90
13203;DHT22;6666;51.626;7.530;2023-12-28T11:04:42;10.80;99.90
13203;DHT22;6666;51.626;7.530;2023-12-28T11:07:10;10.80;99.90
13203;DHT22;6666;51.626;7.530;2023-12-28T11:09:42;10.90;99.90
13203;DHT22;6666;51.626;7.530;2023-12-28T11:12:10;11.00;99.90
13203;DHT22;6666;51.626;7.530;2023-12-28T11:14:41;11.00;99.90
13203;DHT22;6666;51.626;7.530;2023-12-28T11:17:09;11.00;99.90
13203;DHT22;6666;51.626;7.530;2023-12-28T11:19:38;11.10;99.90
13203;DHT22;6666;51.626;7.530;2023-12-28T11:22:07;11.10;99.90
13203;DHT22;6666;51.626;7.530;2023-12-28T11:24:35;11.10;99.90
13203;DHT22;6666;51.626;7.530;2023-12-28T11:27:04;11.10;99.90
13203;DHT22;6666;51.626;7.530;2023-12-28T11:29:37;11.10;99.90
13203;DHT22;6666;51.626;7.530;2023-12-28T11:32:08;11.10;99.90
13203;DHT22;6666;51.626;7.530;2023-12-28T11:34:36;11.10;99.90
13203;DHT22;6666;51.626;7.530;2023-12-28T11:37:07;11.10;99.90
13203;DHT22;6666;51.626;7.530;2023-12-28T11:39:36;11.10;99.90
13203;DHT22;6666;51.626;7.530;2023-12-28T11:42:07;11.20;99.90
13203;DHT22;6666;51.626;7.530;2023-12-28T11:44:38;11.10;99.30
13203;DHT22;6666;51.626;7.530;2023-12-28T11:47:14;11.20;99.90
13203;DHT22;6666;51.626;7.530;2023-12-28T11:49:43;11.20;99.90
13203;DHT22;6666;51.626;7.530;2023-12-28T11:52:22;11.20;98.30
13203;DHT22;6666;51.626;7.530;2023-12-28T11:54:51;11.20;97.50
13203;DHT22;6666;51.626;7.530;2023-12-28T11:57:20;11.30;77.20
13203;DHT22;6666;51.626;7.530;2023-12-28T11:59:53;11.30;1.00
13203;DHT22;6666;51.626;7.530;2023-12-28T12:02:23;11.30;1.00
13203;DHT22;6666;51.626;7.530;2023-12-28T12:04:52;11.30;1.00
13203;DHT22;6666;51.626;7.530;2023-12-28T12:07:23;11.40;1.00
13203;DHT22;6666;51.626;7.530;2023-12-28T12:09:55;11.40;1.00
13203;DHT22;6666;51.626;7.530;2023-12-28T12:12:24;11.40;1.00
13203;DHT22;6666;51.626;7.530;2023-12-28T12:14:52;11.50;1.00
13203;DHT22;6666;51.626;7.530;2023-12-28T12:17:21;11.50;1.00
13203;DHT22;6666;51.626;7.530;2023-12-28T12:19:50;11.50;1.00
13203;DHT22;6666;51.626;7.530;2023-12-28T12:22:22;11.50;1.00
13203;DHT22;6666;51.626;7.530;2023-12-28T12:24:56;11.50;1.00
13203;DHT22;6666;51.626;7.530;2023-12-28T12:27:26;11.50;1.00
13203;DHT22;6666;51.626;7.530;2023-12-28T12:29:54;11.50;1.00
13203;DHT22;6666;51.626;7.530;2023-12-28T12:32:22;11.50;1.00
13203;DHT22;6666;51.626;7.530;2023-12-28T12:34:52;11.50;1.00
13203;DHT22;6666;51.626;7.530;2023-12-28T12:37:21;11.40;1.00
13203;DHT22;6666;51.626;7.530;2023-12-28T12:39:50;11.50;1.00
13203;DHT22;6666;51.626;7.530;2023-12-28T12:42:17;11.50;1.00
13203;DHT22;6666;51.626;7.530;2023-12-28T12:44:46;11.50;1.00
13203;DHT22;6666;51.626;7.530;2023-12-28T12:47:14;11.50;1.00
13203;DHT22;6666;51.626;7.530;2023-12-28T12:49:42;11.50;1.00
13203;DHT22;6666;51.626;7.530;2023-12-28T12:52:12;11.50;1.00
13203;DHT22;6666;51.626;7.530;2023-12-28T12:54:40;11.50;1.00
13203;DHT22;6666;51.626;7.530;2023-12-28T12:57:09;11.50;1.00
13203;DHT22;6666;51.626;7.530;2023-12-28T12:59:38;11.50;1.00
13203;DHT22;6666;51.626;7.530;2023-12-28T13:02:07;11.50;1.00
13203;DHT22;6666;51.626;7.530;2023-12-28T13:04:38;11.60;1.00
13203;DHT22;6666;51.626;7.530;2023-12-28T13:07:06;11.60;1.00
13203;DHT22;6666;51.626;7.530;2023-12-28T13:09:37;11.50;1.00
13203;DHT22;6666;51.626;7.530;2023-12-28T13:12:06;11.50;1.00
13203;DHT22;6666;51.626;7.530;2023-12-28T13:14:34;11.50;1.00
13203;DHT22;6666;51.626;7.530;2023-12-28T13:17:02;11.50;1.00
13203;DHT22;6666;51.626;7.530;2023-12-28T13:19:31;11.40;1.00
13203;DHT22;6666;51.626;7.530;2023-12-28T13:21:59;11.40;1.00
13203;DHT22;6666;51.626;7.530;2023-12-28T13:24:27;11.40;1.00
13203;DHT22;6666;51.626;7.530;2023-12-28T13:26:56;11.40;1.00
13203;DHT22;6666;51.626;7.530;2023-12-28T13:29:24;11.40;1.00
13203;DHT22;6666;51.626;7.530;2023-12-28T13:31:53;11.50;1.00
13203;DHT22;6666;51.626;7.530;2023-12-28T13:34:21;11.50;1.00
13203;DHT22;6666;51.626;7.530;2023-12-28T13:36:49;11.40;1.00
13203;DHT22;6666;51.626;7.530;2023-12-28T13:39:18;11.40;1.00
13203;DHT22;6666;51.626;7.530;2023-12-28T13:41:46;11.40;1.00
13203;DHT22;6666;51.626;7.530;2023-12-28T13:44:16;11.40;99.90
13203;DHT22;6666;51.626;7.530;2023-12-28T13:46:44;11.40;1.00
13203;DHT22;6666;51.626;7.530;2023-12-28T13:49:12;11.40;1.00
13203;DHT22;6666;51.626;7.530;2023-12-28T13:51:40;11.40;99.90
13203;DHT22;6666;51.626;7.530;2023-12-28T13:54:08;11.40;1.00
13203;DHT22;6666;51.626;7.530;2023-12-28T13:56:36;11.40;1.00
13203;DHT22;6666;51.626;7.530;2023-12-28T13:59:05;11.40;1.00
13203;DHT22;6666;51.626;7.530;2023-12-28T14:01:34;11.40;1.00
13203;DHT22;6666;51.626;7.530;2023-12-28T14:04:02;11.30;1.00
13203;DHT22;6666;51.626;7.530;2023-12-28T14:06:31;11.30;1.00
13203;DHT22;6666;51.626;7.530;2023-12-28T14:08:59;11.30;1.00
13203;DHT22;6666;51.626;7.530;2023-12-28T14:11:27;11.30;99.90
13203;DHT22;6666;51.626;7.530;2023-12-28T14:13:55;11.20;1.00
13203;DHT22;6666;51.626;7.530;2023-12-28T14:16:24;11.30;1.00
13203;DHT22;6666;51.626;7.530;2023-12-28T14:18:53;11.20;1.00
13203;DHT22;6666;51.626;7.530;2023-12-28T14:21:22;11.20;1.00
13203;DHT22;6666;51.626;7.530;2023-12-28T14:23:51;11.20;1.00
13203;DHT22;6666;51.626;7.530;2023-12-28T14:26:20;11.10;1.00
13203;DHT22;6666;51.626;7.530;2023-12-28T14:28:49;11.10;1.00
13203;DHT22;6666;51.626;7.530;2023-12-28T14:31:17;11.20;1.00
13203;DHT22;6666;51.626;7.530;2023-12-28T14:33:46;11.10;1.00
13203;DHT22;6666;51.626;7.530;2023-12-28T14:36:21;11.10;1.00
13203;DHT22;6666;51.626;7.530;2023-12-28T14:38:50;11.00;1.00
13203;DHT22;6666;51.626;7.530;2023-12-28T14:41:18;11.00;1.00
13203;DHT22;6666;51.626;7.530;2023-12-28T14:43:47;11.00;1.00
13203;DHT22;6666;51.626;7.530;2023-12-28T14:46:15;11.00;1.00
13203;DHT22;6666;51.626;7.530;2023-12-28T14:48:43;11.00;1.00
13203;DHT22;6666;51.626;7.530;2023-12-28T14:51:11;11.00;1.00
13203;DHT22;6666;51.626;7.530;2023-12-28T14:53:40;11.00;1.00
13203;DHT22;6666;51.626;7.530;2023-12-28T14:56:08;11.10;1.00
13203;DHT22;6666;51.626;7.530;2023-12-28T14:58:37;11.00;1.00
13203;DHT22;6666;51.626;7.530;2023-12-28T15:01:05;11.00;1.00
13203;DHT22;6666;51.626;7.530;2023-12-28T15:03:33;11.00;1.00
13203;DHT22;6666;51.626;7.530;2023-12-28T15:06:03;10.90;1.00
13203;DHT22;6666;51.626;7.530;2023-12-28T15:08:31;10.90;1.00
13203;DHT22;6666;51.626;7.530;2023-12-28T15:11:02;10.90;1.00
13203;DHT22;6666;51.626;7.530;2023-12-28T15:13:31;10.90;1.00
13203;DHT22;6666;51.626;7.530;2023-12-28T15:15:59;10.90;1.00
13203;DHT22;6666;51.626;7.530;2023-12-28T15:18:30;10.90;1.00
13203;DHT22;6666;51.626;7.530;2023-12-28T15:20:59;10.90;1.00
13203;DHT22;6666;51.626;7.530;2023-12-28T15:23:28;10.90;1.00
13203;DHT22;6666;51.626;7.530;2023-12-28T15:25:56;10.80;1.00
13203;DHT22;6666;51.626;7.530;2023-12-28T15:28:26;10.80;1.00
13203;DHT22;6666;51.626;7.530;2023-12-28T15:30:54;10.80;1.00
13203;DHT22;6666;51.626;7.530;2023-12-28T15:33:22;10.80;1.00
13203;DHT22;6666;51.626;7.530;2023-12-28T15:35:51;10.80;1.00
13203;DHT22;6666;51.626;7.530;2023-12-28T15:38:19;10.80;1.00
13203;DHT22;6666;51.626;7.530;2023-12-28T15:40:47;10.80;1.00
13203;DHT22;6666;51.626;7.530;2023-12-28T15:43:15;10.80;1.00
13203;DHT22;6666;51.626;7.530;2023-12-28T15:45:46;10.80;1.00
13203;DHT22;6666;51.626;7.530;2023-12-28T15:48:14;10.80;1.00
13203;DHT22;6666;51.626;7.530;2023-12-28T15:50:42;10.80;1.00
13203;DHT22;6666;51.626;7.530;2023-12-28T15:53:10;10.70;1.00
13203;DHT22;6666;51.626;7.530;2023-12-28T15:55:39;10.60;1.00
13203;DHT22;6666;51.626;7.530;2023-12-28T15:58:07;10.60;1.00
13203;DHT22;6666;51.626;7.530;2023-12-28T16:00:35;10.50;1.00
13203;DHT22;6666;51.626;7.530;2023-12-28T16:03:05;10.60;1.00
13203;DHT22;6666;51.626;7.530;2023-12-28T16:05:33;10.60;1.00
13203;DHT22;6666;51.626;7.530;2023-12-28T16:08:01;10.70;1.00
13203;DHT22;6666;51.626;7.530;2023-12-28T16:10:30;10.70;1.00